Darin Adrian — WDE6485 — position and weather

sailwx.info

Track history (hours):
 
Tides and Currents Weather Stations Pressure Air Temp Water Temp Dewpoint Dewpoint Depression Visibility Wind Speed Wind Dir Waves Ship Positions

Darin Adrian

Owner: Marquette Transportation Company LLC, Paducah, KY. More information available from US FCC via Universal Licensing System and Coast Guard Vessel Documentation Center.

Last reported at 2018-May-31 11:00 UTC. Time now 2018-Jun-19 20:10 UTC.
Position N 33°03' W 091°09'.
Warning: this ship's position is 19 days out of date.

Length 50 m; draft 3.4 m.

Type: Towing. MMSI: 367380840.

Date/timePositionNaut miles runAvg speedWind from/ knotsBaromVisibWave heightAir tempDewpointWater temp
2018-May-31 11:00N 33°03' W 091°09'20 3.1
2018-May-31 04:32N 32°44' W 091°04'0 5.6
2018-May-31 04:30N 32°44' W 091°04'3 4.2
2018-May-31 03:46N 32°41' W 091°05'2 1.9
2018-May-31 02:51N 32°40' W 091°07'2 4.5
2018-May-31 02:30N 32°40' W 091°08'3 5.4
2018-May-31 02:00N 32°37' W 091°09'3 5.3
2018-May-31 01:30N 32°35' W 091°07'2 4.8
2018-May-31 01:00N 32°33' W 091°06'3 5.5
2018-May-31 00:29N 32°30' W 091°07'2 5.1
2018-May-31 00:00N 32°28' W 091°06'3 5.5
2018-May-30 23:30N 32°26' W 091°03'3 5.0
2018-May-30 23:00N 32°25' W 091°00'2 4.4
2018-May-30 22:30N 32°23' W 090°60'2 3.2
2018-May-30 22:00N 32°21' W 091°00'2 4.2
2018-May-30 21:30N 32°21' W 090°58'0 0.1
2018-May-30 21:00N 32°21' W 090°58'0 0.0
2018-May-30 20:30N 32°21' W 090°58'1 2.6
2018-May-30 20:00N 32°21' W 090°56'2 4.3
2018-May-30 19:30N 32°19' W 090°54'2 3.3
2018-May-30 19:00N 32°18' W 090°55'0 0.6
2018-May-30 18:30N 32°18' W 090°56'3 5.1
2018-May-30 18:00N 32°16' W 090°58'2 4.9
2018-May-30 17:30N 32°14' W 090°59'2 4.7
2018-May-30 16:59N 32°11' W 090°60'2 4.9
2018-May-30 16:30N 32°09' W 091°00'2 4.9
2018-May-30 16:00N 32°07' W 091°02'3 5.5
2018-May-30 15:25N 32°08' W 091°05'2 4.1
2018-May-30 15:00N 32°06' W 091°06'3 5.8
2018-May-30 14:26N 32°04' W 091°04'  
2018-May-26 17:04N 31°59' W 091°11'4 8.5
2018-May-26 16:35N 31°59' W 091°06'1 9.0
2018-May-26 16:29N 31°60' W 091°05'4 8.7
2018-May-26 15:59N 32°04' W 091°04'4 7.7
2018-May-26 15:30N 32°07' W 091°06'3 5.2
2018-May-26 15:01N 32°08' W 091°03'4 7.0
2018-May-26 14:30N 32°10' W 091°00'5 9.2
2018-May-26 14:01N 32°14' W 090°59'4 8.7
2018-May-26 13:31N 32°18' W 090°56'3 5.9
2018-May-26 13:01N 32°20' W 090°54'3 6.1
2018-May-26 12:31N 32°21' W 090°58'3 6.2
2018-May-26 12:00N 32°23' W 090°60'3 6.6
2018-May-26 11:30N 32°26' W 091°02'4 8.3
2018-May-26 11:01N 32°28' W 091°06'5 8.5
2018-May-26 10:27N 32°33' W 091°06'4 8.7
2018-May-26 10:00N 32°36' W 091°09'  
Track history (hours):
 
Tides and Currents Weather Stations Pressure Air Temp Water Temp Dewpoint Dewpoint Depression Visibility Wind Speed Wind Dir Waves Ship Positions

Darin Adrian

Owner: Marquette Transportation Company LLC, Paducah, KY. More information available from US FCC via Universal Licensing System and Coast Guard Vessel Documentation Center.

Last reported at 2018-May-31 11:00 UTC. Time now 2018-Jun-19 20:10 UTC.
Position N 33°03' W 091°09'.
Warning: this ship's position is 19 days out of date.

Length 50 m; draft 3.4 m.

Type: Towing. MMSI: 367380840.

Date/timePositionNaut miles runAvg speedWind from/ knotsBaromVisibWave heightAir tempDewpointWater temp
2018-May-31 11:00N 33°03' W 091°09'20 3.1
2018-May-31 04:32N 32°44' W 091°04'0 5.6
2018-May-31 04:30N 32°44' W 091°04'3 4.2
2018-May-31 03:46N 32°41' W 091°05'2 1.9
2018-May-31 02:51N 32°40' W 091°07'2 4.5
2018-May-31 02:30N 32°40' W 091°08'3 5.4
2018-May-31 02:00N 32°37' W 091°09'3 5.3
2018-May-31 01:30N 32°35' W 091°07'2 4.8
2018-May-31 01:00N 32°33' W 091°06'3 5.5
2018-May-31 00:29N 32°30' W 091°07'2 5.1
2018-May-31 00:00N 32°28' W 091°06'3 5.5
2018-May-30 23:30N 32°26' W 091°03'3 5.0
2018-May-30 23:00N 32°25' W 091°00'2 4.4
2018-May-30 22:30N 32°23' W 090°60'2 3.2
2018-May-30 22:00N 32°21' W 091°00'2 4.2
2018-May-30 21:30N 32°21' W 090°58'0 0.1
2018-May-30 21:00N 32°21' W 090°58'0 0.0
2018-May-30 20:30N 32°21' W 090°58'1 2.6
2018-May-30 20:00N 32°21' W 090°56'2 4.3
2018-May-30 19:30N 32°19' W 090°54'2 3.3
2018-May-30 19:00N 32°18' W 090°55'0 0.6
2018-May-30 18:30N 32°18' W 090°56'3 5.1
2018-May-30 18:00N 32°16' W 090°58'2 4.9
2018-May-30 17:30N 32°14' W 090°59'2 4.7
2018-May-30 16:59N 32°11' W 090°60'2 4.9
2018-May-30 16:30N 32°09' W 091°00'2 4.9
2018-May-30 16:00N 32°07' W 091°02'3 5.5
2018-May-30 15:25N 32°08' W 091°05'2 4.1
2018-May-30 15:00N 32°06' W 091°06'3 5.8
2018-May-30 14:26N 32°04' W 091°04'  
2018-May-26 17:04N 31°59' W 091°11'4 8.5
2018-May-26 16:35N 31°59' W 091°06'1 9.0
2018-May-26 16:29N 31°60' W 091°05'4 8.7
2018-May-26 15:59N 32°04' W 091°04'4 7.7
2018-May-26 15:30N 32°07' W 091°06'3 5.2
2018-May-26 15:01N 32°08' W 091°03'4 7.0
2018-May-26 14:30N 32°10' W 091°00'5 9.2
2018-May-26 14:01N 32°14' W 090°59'4 8.7
2018-May-26 13:31N 32°18' W 090°56'3 5.9
2018-May-26 13:01N 32°20' W 090°54'3 6.1
2018-May-26 12:31N 32°21' W 090°58'3 6.2
2018-May-26 12:00N 32°23' W 090°60'3 6.6
2018-May-26 11:30N 32°26' W 091°02'4 8.3
2018-May-26 11:01N 32°28' W 091°06'5 8.5
2018-May-26 10:27N 32°33' W 091°06'4 8.7
2018-May-26 10:00N 32°36' W 091°09'  

Dump ship's entire track history